LIPY/AOI METAR and TAF weather

Enter ICAO airport designator
Station Type Date Time Source
LIPY METAR 2019/07/20 04:50 UTC NOAA

LIPY 200450Z 19003KT CAVOK 20/18 Q1017


Station Type Date Time Source
LIPY Decoded METAR 2019/07/20 04:50 UTC NOAA

Falconara, Italy (LIPY) 43-37N 013-22E 10M
Jul 20, 2019 - 12:50 AM EDT / 2019.07.20 0450 UTC
Wind: from the S (190 degrees) at 3 MPH (3 KT):0
Visibility: greater than 7 mile(s):0
Temperature: 68 F (20 C)
Dew Point: 64 F (18 C)
Relative Humidity: 88%
Pressure (altimeter): 30.03 in. Hg (1017 hPa)
ob: LIPY 200450Z 19003KT CAVOK 20/18 Q1017
cycle: 5

Station Type Date Time Source
LIPY TAF 2019/07/19 18:21 UTC NOAA

TAF LIPY 191700Z 1918/2018 VRB05KT 9999 FEW030
BECMG 2010/2012 08010KT

Example: see airport list